createdAt,value
2022-10-23T00:01:44.077Z,4.43
2022-10-23T00:04:30.737Z,4.37
2022-10-23T00:07:17.462Z,5.23
2022-10-23T00:10:06.087Z,4.67
2022-10-23T00:12:53.745Z,4.40
2022-10-23T00:15:40.335Z,5.50
2022-10-23T00:18:28.748Z,5.10
2022-10-23T00:21:17.648Z,5.50
2022-10-23T00:24:04.582Z,5.80
2022-10-23T00:26:51.653Z,5.27
2022-10-23T00:29:38.189Z,5.53
2022-10-23T00:32:26.463Z,5.43
2022-10-23T00:35:15.723Z,5.53
2022-10-23T00:38:02.520Z,6.13
2022-10-23T00:43:58.567Z,5.47
2022-10-23T00:46:46.331Z,5.03
2022-10-23T00:49:34.601Z,5.40
2022-10-23T00:52:22.804Z,4.70
2022-10-23T00:55:10.098Z,5.40
2022-10-23T00:57:57.296Z,5.53
2022-10-23T01:00:47.775Z,5.60
2022-10-23T01:03:34.472Z,6.43
2022-10-23T01:06:31.760Z,5.23
2022-10-23T01:09:26.139Z,5.03
2022-10-23T01:12:22.463Z,4.80
2022-10-23T01:15:17.724Z,6.00
2022-10-23T01:18:08.805Z,5.90
2022-10-23T01:21:01.453Z,5.43
2022-10-23T01:24:11.133Z,5.63
2022-10-23T01:27:14.855Z,5.20
2022-10-23T01:30:07.079Z,5.73
2022-10-23T01:33:01.744Z,5.93
2022-10-23T01:35:53.654Z,5.57
2022-10-23T01:38:45.404Z,6.00
2022-10-23T01:41:43.419Z,5.67
2022-10-23T01:44:37.737Z,5.93
2022-10-23T01:47:31.285Z,5.63
2022-10-23T01:50:25.788Z,5.90
2022-10-23T01:53:20.907Z,5.90
2022-10-23T01:56:11.790Z,6.00
2022-10-23T01:59:02.784Z,5.50
2022-10-23T02:01:59.430Z,5.83
2022-10-23T02:04:57.010Z,5.57
2022-10-23T02:07:44.097Z,5.63
2022-10-23T02:10:41.488Z,5.80
2022-10-23T02:13:34.396Z,5.90
2022-10-23T02:16:30.256Z,5.70
2022-10-23T02:19:26.740Z,5.60
2022-10-23T02:22:28.388Z,4.80
2022-10-23T02:25:18.840Z,5.67
2022-10-23T02:28:13.555Z,5.53
2022-10-23T02:31:08.433Z,5.40
2022-10-23T02:33:55.508Z,5.40
2022-10-23T02:36:44.290Z,4.90
2022-10-23T02:39:31.312Z,5.27
2022-10-23T02:42:24.011Z,5.63
2022-10-23T02:45:15.985Z,6.37
2022-10-23T02:48:12.799Z,5.80
2022-10-23T02:51:07.408Z,5.97
2022-10-23T02:54:04.316Z,5.53
2022-10-23T02:57:01.201Z,5.63
2022-10-23T02:59:56.294Z,6.20
2022-10-23T03:02:47.726Z,6.07
2022-10-23T03:05:39.610Z,5.30
2022-10-23T03:08:26.990Z,4.97
2022-10-23T03:11:15.092Z,6.03
2022-10-23T03:14:01.854Z,5.60
2022-10-23T03:16:49.272Z,5.97
2022-10-23T03:19:36.003Z,5.80
2022-10-23T03:22:24.599Z,5.37
2022-10-23T03:25:11.449Z,5.57
2022-10-23T03:28:00.377Z,5.43
2022-10-23T03:30:46.918Z,5.43
2022-10-23T03:33:33.990Z,4.93
2022-10-23T03:36:29.034Z,5.87
2022-10-23T03:39:16.346Z,5.70
2022-10-23T03:42:04.541Z,5.83
2022-10-23T03:44:52.507Z,6.27
2022-10-23T03:47:41.504Z,6.53
2022-10-23T03:50:28.688Z,5.40
2022-10-23T03:53:15.653Z,5.67
2022-10-23T03:56:02.501Z,5.43
2022-10-23T03:58:49.658Z,5.90
2022-10-23T04:01:37.592Z,5.90
2022-10-23T04:04:24.311Z,5.93
2022-10-23T04:07:11.091Z,5.77
2022-10-23T04:09:58.131Z,5.77
2022-10-23T04:12:45.347Z,5.57
2022-10-23T04:15:32.024Z,5.80
2022-10-23T04:18:20.822Z,5.40
2022-10-23T04:21:07.452Z,6.03
2022-10-23T04:23:54.163Z,5.17
2022-10-23T04:26:42.263Z,5.17
2022-10-23T04:29:32.545Z,5.73
2022-10-23T04:32:19.029Z,5.23
2022-10-23T04:35:09.164Z,4.37
2022-10-23T04:37:55.752Z,5.43
2022-10-23T04:40:43.578Z,5.53
2022-10-23T04:43:30.339Z,5.93
2022-10-23T04:46:17.580Z,5.53
2022-10-23T04:49:07.517Z,6.03
2022-10-23T04:52:14.706Z,5.17
2022-10-23T04:55:20.987Z,4.90
2022-10-23T04:58:31.125Z,6.70
2022-10-23T05:01:17.786Z,6.90
2022-10-23T05:04:04.612Z,5.67
2022-10-23T05:06:55.515Z,5.97
2022-10-23T05:09:57.220Z,5.67
2022-10-23T05:12:56.221Z,5.73
2022-10-23T05:18:34.146Z,5.80
2022-10-23T05:21:26.528Z,6.40
2022-10-23T05:24:13.359Z,5.13
2022-10-23T05:27:08.945Z,5.97
2022-10-23T05:29:58.354Z,5.17
2022-10-23T05:32:47.986Z,5.23
2022-10-23T05:35:34.770Z,5.70
2022-10-23T05:38:21.392Z,5.13
2022-10-23T05:41:08.834Z,5.10
2022-10-23T05:43:57.081Z,5.13
2022-10-23T05:47:02.785Z,5.60
2022-10-23T05:50:21.841Z,5.10
2022-10-23T05:53:19.041Z,5.30
2022-10-23T05:56:25.263Z,4.53
2022-10-23T05:59:23.431Z,5.50
2022-10-23T06:02:29.282Z,4.57
2022-10-23T06:05:23.462Z,4.57
2022-10-23T06:08:29.118Z,6.07
2022-10-23T06:11:16.880Z,7.93
2022-10-23T06:14:11.757Z,15.47
2022-10-23T06:17:00.924Z,21.67
2022-10-23T06:19:47.625Z,15.70
2022-10-23T06:22:37.966Z,11.67
2022-10-23T06:25:39.753Z,7.57
2022-10-23T06:28:26.754Z,5.07
2022-10-23T06:31:16.345Z,5.60
2022-10-23T06:34:06.137Z,6.63
2022-10-23T06:36:53.135Z,5.73
2022-10-23T06:39:49.973Z,4.87
2022-10-23T06:42:39.666Z,4.80
2022-10-23T06:45:48.017Z,4.10
2022-10-23T06:48:34.787Z,3.97
2022-10-23T06:51:29.719Z,4.00
2022-10-23T06:54:17.043Z,4.00
2022-10-23T06:57:29.588Z,3.93
2022-10-23T07:00:16.546Z,4.00
2022-10-23T07:03:09.742Z,4.43
2022-10-23T07:05:56.381Z,3.77
2022-10-23T07:08:44.415Z,5.10
2022-10-23T07:11:54.443Z,4.87
2022-10-23T07:14:53.778Z,4.93
2022-10-23T07:17:41.506Z,4.90
2022-10-23T07:20:28.693Z,4.17
2022-10-23T07:23:16.401Z,6.33
2022-10-23T07:26:08.327Z,4.30
2022-10-23T07:28:56.117Z,5.33
2022-10-23T07:31:43.948Z,5.80
2022-10-23T07:34:57.091Z,6.33
2022-10-23T07:37:50.121Z,6.17
2022-10-23T07:40:37.775Z,5.83
2022-10-23T07:43:28.466Z,5.87
2022-10-23T07:46:15.233Z,5.40
2022-10-23T07:49:02.536Z,5.80
2022-10-23T07:51:51.417Z,6.13
2022-10-23T07:54:39.309Z,5.73
2022-10-23T07:57:41.725Z,6.33
2022-10-23T08:00:45.110Z,6.20
2022-10-23T08:03:42.641Z,6.00
2022-10-23T08:06:29.745Z,6.60
2022-10-23T08:09:18.037Z,6.27
2022-10-23T08:12:05.670Z,6.50
2022-10-23T08:14:52.117Z,6.57
2022-10-23T08:17:40.614Z,7.20
2022-10-23T08:20:39.804Z,7.30
2022-10-23T08:23:27.885Z,5.67
2022-10-23T08:26:14.569Z,5.93
2022-10-23T08:29:01.735Z,6.33
2022-10-23T08:31:49.505Z,6.13
2022-10-23T08:34:46.297Z,5.77
2022-10-23T08:37:33.142Z,5.97
2022-10-23T08:40:23.833Z,6.07
2022-10-23T08:43:35.594Z,6.13
2022-10-23T08:46:41.940Z,6.53
2022-10-23T08:49:44.338Z,6.53
2022-10-23T08:52:37.605Z,6.83
2022-10-23T08:55:28.527Z,7.67
2022-10-23T08:58:19.938Z,6.60
2022-10-23T09:01:34.630Z,6.80
2022-10-23T09:04:21.543Z,7.20
2022-10-23T09:07:19.527Z,7.07
2022-10-23T09:10:23.169Z,6.90
2022-10-23T09:13:36.000Z,6.60
2022-10-23T09:16:33.647Z,6.73
2022-10-23T09:19:26.422Z,7.33
2022-10-23T09:22:14.022Z,6.80
2022-10-23T09:25:00.850Z,6.30
2022-10-23T09:27:54.768Z,6.13
2022-10-23T09:30:44.118Z,5.93
2022-10-23T09:33:30.715Z,5.37
2022-10-23T09:36:23.573Z,5.73
2022-10-23T09:39:23.729Z,5.73
2022-10-23T09:42:23.214Z,6.70
2022-10-23T09:45:24.998Z,5.50
2022-10-23T09:48:15.083Z,5.30
2022-10-23T09:51:03.903Z,5.37
2022-10-23T09:53:53.490Z,4.90
2022-10-23T09:56:42.623Z,5.10
2022-10-23T09:59:31.932Z,4.83
2022-10-23T10:02:28.291Z,4.07
2022-10-23T10:05:37.232Z,4.50
2022-10-23T10:08:40.508Z,4.30
2022-10-23T10:11:38.543Z,3.83
2022-10-23T10:14:48.147Z,4.43
2022-10-23T10:17:44.487Z,4.23
2022-10-23T10:20:45.480Z,3.90
2022-10-23T10:23:41.033Z,4.13
2022-10-23T10:26:36.266Z,3.70
2022-10-23T10:29:36.161Z,3.83
2022-10-23T10:32:34.781Z,4.10
2022-10-23T10:35:29.903Z,3.77
2022-10-23T10:38:33.073Z,3.57
2022-10-23T10:41:38.936Z,3.73
2022-10-23T10:45:01.448Z,3.70
2022-10-23T10:48:03.830Z,3.37
2022-10-23T10:51:07.809Z,2.73
2022-10-23T10:54:17.152Z,3.23
2022-10-23T10:57:12.523Z,3.27
2022-10-23T11:00:06.571Z,3.07
2022-10-23T11:02:56.148Z,3.10
2022-10-23T11:05:45.974Z,2.87
2022-10-23T11:08:49.820Z,2.90
2022-10-23T11:11:44.855Z,2.43
2022-10-23T11:14:34.511Z,2.83
2022-10-23T11:17:27.131Z,2.60
2022-10-23T11:20:26.441Z,2.67
2022-10-23T11:23:45.948Z,3.00
2022-10-23T11:26:43.265Z,2.60
2022-10-23T11:30:24.040Z,2.87
2022-10-23T11:33:42.585Z,2.93
2022-10-23T11:36:44.124Z,2.63
2022-10-23T11:39:34.428Z,3.47
2022-10-23T11:42:33.204Z,2.13
2022-10-23T11:45:34.621Z,2.37
2022-10-23T11:48:25.039Z,2.33
2022-10-23T11:51:33.331Z,2.03
2022-10-23T11:54:27.302Z,2.40
2022-10-23T11:57:17.357Z,2.27
2022-10-23T12:00:04.841Z,2.00
2022-10-23T12:03:01.679Z,2.47
2022-10-23T12:05:48.419Z,2.00
2022-10-23T12:08:39.449Z,2.20
2022-10-23T12:11:42.457Z,2.20
2022-10-23T12:14:34.288Z,2.07
2022-10-23T12:17:31.620Z,1.97
2022-10-23T12:20:28.258Z,2.30
2022-10-23T12:23:47.325Z,2.03
2022-10-23T12:26:51.525Z,1.67
2022-10-23T12:29:53.808Z,2.10
2022-10-23T12:32:57.284Z,2.03
2022-10-23T12:36:08.062Z,2.13
2022-10-23T12:38:58.570Z,1.97
2022-10-23T12:41:45.056Z,2.00
2022-10-23T12:44:31.832Z,2.03
2022-10-23T12:47:20.154Z,2.13
2022-10-23T12:50:18.893Z,2.17
2022-10-23T12:53:08.316Z,1.87
2022-10-23T12:58:50.163Z,1.70
2022-10-23T13:01:39.362Z,2.20
2022-10-23T13:04:32.441Z,1.90
2022-10-23T13:07:20.994Z,2.20
2022-10-23T13:10:12.710Z,2.10
2022-10-23T13:13:07.967Z,2.10
2022-10-23T13:15:54.550Z,2.30
2022-10-23T13:18:42.379Z,2.30
2022-10-23T13:21:32.590Z,2.10
2022-10-23T13:24:22.634Z,1.90
2022-10-23T13:27:26.835Z,1.77
2022-10-23T13:30:29.492Z,1.80
2022-10-23T13:33:23.578Z,1.90
2022-10-23T13:36:24.108Z,1.83
2022-10-23T13:39:16.546Z,2.10
2022-10-23T13:42:13.557Z,1.87
2022-10-23T13:45:00.163Z,1.93
2022-10-23T13:47:47.076Z,2.07
2022-10-23T13:50:33.441Z,1.83
2022-10-23T13:53:20.277Z,1.80
2022-10-23T13:56:11.128Z,1.80
2022-10-23T13:58:57.711Z,1.73
2022-10-23T14:01:46.109Z,2.03
2022-10-23T14:04:37.946Z,2.13
2022-10-23T14:07:26.028Z,2.10
2022-10-23T14:10:12.818Z,2.93
2022-10-23T14:13:00.860Z,1.83
2022-10-23T14:15:54.467Z,1.80
2022-10-23T14:18:41.622Z,1.53
2022-10-23T14:21:28.725Z,1.57
2022-10-23T14:24:15.416Z,1.90
2022-10-23T14:27:02.346Z,1.87
2022-10-23T14:29:50.432Z,1.60
2022-10-23T14:32:37.261Z,1.97
2022-10-23T14:35:25.674Z,1.70
2022-10-23T14:38:12.409Z,1.90
2022-10-23T14:40:59.190Z,2.53
2022-10-23T14:43:46.243Z,1.90
2022-10-23T14:46:35.561Z,1.80
2022-10-23T14:49:22.366Z,2.07
2022-10-23T14:52:09.155Z,2.33
2022-10-23T14:54:56.274Z,1.80
2022-10-23T14:57:42.955Z,1.97
2022-10-23T15:00:31.153Z,1.70
2022-10-23T15:03:21.570Z,1.90
2022-10-23T15:06:09.062Z,2.10
2022-10-23T15:08:55.955Z,2.00
2022-10-23T15:11:42.580Z,1.70
2022-10-23T15:14:29.556Z,1.67
2022-10-23T15:17:17.241Z,2.20
2022-10-23T15:20:06.454Z,2.40
2022-10-23T15:22:53.183Z,2.20
2022-10-23T15:25:42.160Z,1.83
2022-10-23T15:28:29.546Z,1.97
2022-10-23T15:31:47.669Z,2.07
2022-10-23T15:34:34.766Z,1.90
2022-10-23T15:37:22.646Z,2.43
2022-10-23T15:40:10.378Z,2.10
2022-10-23T15:42:57.183Z,1.87
2022-10-23T15:45:44.131Z,2.10
2022-10-23T15:48:30.840Z,2.10
2022-10-23T15:51:24.477Z,1.83
2022-10-23T15:54:19.324Z,2.30
2022-10-23T15:57:06.561Z,2.37
2022-10-23T15:59:53.785Z,1.77
2022-10-23T16:02:41.389Z,3.00
2022-10-23T16:05:28.279Z,3.10
2022-10-23T16:08:15.940Z,2.60
2022-10-23T16:11:04.653Z,2.90
2022-10-23T16:13:52.741Z,3.67
2022-10-23T16:16:40.351Z,4.37
2022-10-23T16:19:28.195Z,3.03
2022-10-23T16:22:16.423Z,2.97
2022-10-23T16:25:03.851Z,2.70
2022-10-23T16:27:51.789Z,2.20
2022-10-23T16:30:42.142Z,3.03
2022-10-23T16:33:28.928Z,2.80
2022-10-23T16:36:15.697Z,2.70
2022-10-23T16:39:21.889Z,5.97
2022-10-23T16:42:27.785Z,2.30
2022-10-23T16:45:27.896Z,2.87
2022-10-23T16:48:14.962Z,2.90
2022-10-23T16:51:01.826Z,2.60
2022-10-23T16:53:49.015Z,2.50
2022-10-23T16:56:35.556Z,2.67
2022-10-23T16:59:22.262Z,2.20
2022-10-23T17:02:12.308Z,2.47
2022-10-23T17:04:59.257Z,2.33
2022-10-23T17:07:46.366Z,2.53
2022-10-23T17:10:33.414Z,2.70
2022-10-23T17:13:20.206Z,2.97
2022-10-23T17:16:09.817Z,2.60
2022-10-23T17:18:58.486Z,2.50
2022-10-23T17:21:45.031Z,2.77
2022-10-23T17:24:31.672Z,3.73
2022-10-23T17:27:19.430Z,2.97
2022-10-23T17:30:12.366Z,3.30
2022-10-23T17:33:01.807Z,3.00
2022-10-23T17:35:51.392Z,2.80
2022-10-23T17:38:38.480Z,2.73
2022-10-23T17:41:27.111Z,3.30
2022-10-23T17:44:13.877Z,2.87
2022-10-23T17:47:00.581Z,2.93
2022-10-23T17:49:47.133Z,3.33
2022-10-23T17:52:35.382Z,2.90
2022-10-23T17:55:22.188Z,2.90
2022-10-23T17:58:09.617Z,2.87
2022-10-23T18:00:56.224Z,2.80
2022-10-23T18:03:43.173Z,2.97
2022-10-23T18:06:33.068Z,2.93
2022-10-23T18:09:21.812Z,2.70
2022-10-23T18:12:08.668Z,2.93
2022-10-23T18:14:56.419Z,2.67
2022-10-23T18:17:43.326Z,3.10
2022-10-23T18:20:30.330Z,2.80
2022-10-23T18:23:17.099Z,2.90
2022-10-23T18:26:06.798Z,3.00
2022-10-23T18:28:57.023Z,3.00
2022-10-23T18:31:44.792Z,3.00
2022-10-23T18:34:31.605Z,3.33
2022-10-23T18:37:18.798Z,2.97
2022-10-23T18:40:06.187Z,3.53
2022-10-23T18:42:54.495Z,3.20
2022-10-23T18:45:43.704Z,3.00
2022-10-23T18:48:30.898Z,2.80
2022-10-23T18:51:20.342Z,2.90
2022-10-23T18:54:09.649Z,3.97
2022-10-23T18:56:57.103Z,3.10
2022-10-23T18:59:45.320Z,3.17
2022-10-23T19:02:33.170Z,2.77
2022-10-23T19:05:19.986Z,3.00
2022-10-23T19:08:09.381Z,3.70
2022-10-23T19:11:00.256Z,3.30
2022-10-23T19:13:48.760Z,3.20
2022-10-23T19:16:40.826Z,3.10
2022-10-23T19:19:32.027Z,2.90
2022-10-23T19:22:19.998Z,3.10
2022-10-23T19:25:13.033Z,2.97
2022-10-23T19:28:03.376Z,3.43
2022-10-23T19:30:50.618Z,3.50
2022-10-23T19:33:40.360Z,2.93
2022-10-23T19:36:29.815Z,3.13
2022-10-23T19:39:19.270Z,3.23
2022-10-23T19:42:08.916Z,3.50
2022-10-23T19:44:56.233Z,3.20
2022-10-23T19:47:44.211Z,2.90
2022-10-23T19:50:33.380Z,3.27
2022-10-23T19:53:20.944Z,3.13
2022-10-23T19:56:09.928Z,3.40
2022-10-23T19:58:57.625Z,3.80
2022-10-23T20:01:47.826Z,3.67
2022-10-23T20:04:37.070Z,3.43
2022-10-23T20:07:25.934Z,3.77
2022-10-23T20:10:13.341Z,3.70
2022-10-23T20:13:18.348Z,3.87
2022-10-23T20:16:06.832Z,3.87
2022-10-23T20:18:54.422Z,3.87
2022-10-23T20:21:42.415Z,4.00
2022-10-23T20:24:30.609Z,3.57
2022-10-23T20:27:18.612Z,3.77
2022-10-23T20:30:06.378Z,3.50
2022-10-23T20:32:53.167Z,3.50
2022-10-23T20:35:40.660Z,3.63
2022-10-23T20:38:27.286Z,3.63
2022-10-23T20:41:15.484Z,3.80
2022-10-23T20:44:02.142Z,3.77
2022-10-23T20:46:49.738Z,3.90
2022-10-23T20:49:36.710Z,3.90
2022-10-23T20:52:23.232Z,3.57
2022-10-23T20:55:10.898Z,3.87
2022-10-23T20:57:59.152Z,3.70
2022-10-23T21:00:45.855Z,3.80
2022-10-23T21:03:32.696Z,3.93
2022-10-23T21:06:22.724Z,3.80
2022-10-23T21:12:02.953Z,3.57
2022-10-23T21:14:50.646Z,3.37
2022-10-23T21:17:40.783Z,3.70
2022-10-23T21:20:27.262Z,4.13
2022-10-23T21:23:14.177Z,4.10
2022-10-23T21:26:06.186Z,4.37
2022-10-23T21:29:16.914Z,3.80
2022-10-23T21:32:02.924Z,3.67
2022-10-23T21:34:49.581Z,4.70
2022-10-23T21:37:36.338Z,4.17
2022-10-23T21:40:24.324Z,4.27
2022-10-23T21:43:11.338Z,3.93
2022-10-23T21:45:58.926Z,4.67
2022-10-23T21:48:48.376Z,4.27
2022-10-23T21:51:38.007Z,4.37
2022-10-23T21:54:24.484Z,4.60
2022-10-23T21:57:14.478Z,4.50
2022-10-23T22:00:01.435Z,4.67
2022-10-23T22:02:48.608Z,4.77
2022-10-23T22:05:36.676Z,4.03
2022-10-23T22:08:23.104Z,4.60
2022-10-23T22:11:09.921Z,4.77
2022-10-23T22:13:57.408Z,5.47
2022-10-23T22:16:44.220Z,5.10
2022-10-23T22:19:30.907Z,4.07
2022-10-23T22:22:19.055Z,5.27
2022-10-23T22:25:06.874Z,5.37
2022-10-23T22:27:53.625Z,4.97
2022-10-23T22:30:40.410Z,4.50
2022-10-23T22:33:27.284Z,4.60
2022-10-23T22:36:14.524Z,5.43
2022-10-23T22:39:03.595Z,4.63
2022-10-23T22:41:50.850Z,5.00
2022-10-23T22:44:37.544Z,5.10
2022-10-23T22:47:25.333Z,5.40
2022-10-23T22:50:12.340Z,4.73
2022-10-23T22:52:58.937Z,4.70
2022-10-23T22:55:47.041Z,5.17
2022-10-23T22:58:33.791Z,4.87
2022-10-23T23:01:23.569Z,4.77
2022-10-23T23:04:26.222Z,4.80
2022-10-23T23:07:16.334Z,4.80
2022-10-23T23:10:03.073Z,4.77
2022-10-23T23:12:53.043Z,5.53
2022-10-23T23:15:41.813Z,4.00
2022-10-23T23:18:28.960Z,5.07
2022-10-23T23:21:16.694Z,4.07
2022-10-23T23:24:03.685Z,4.30
2022-10-23T23:26:50.177Z,4.83
2022-10-23T23:29:38.230Z,5.40
2022-10-23T23:32:25.185Z,4.50
2022-10-23T23:35:12.093Z,4.77
2022-10-23T23:37:58.795Z,5.33
2022-10-23T23:40:54.863Z,5.40
2022-10-23T23:43:42.888Z,5.03
2022-10-23T23:46:31.095Z,4.90
2022-10-23T23:49:18.016Z,5.67
2022-10-23T23:52:04.799Z,5.57
2022-10-23T23:54:51.507Z,4.90
2022-10-23T23:57:38.549Z,5.47
